Time;durP1;ratioP1;P1;durP2;ratioP2;P2;SDS_P1;SDS_P2;PMS_P1;PMS_P2;Temp;Humidity;BMP_temperature;BMP_pressure;BME280_temperature;BME280_humidity;BME280_pressure;Samples;Min_cycle;Max_cycle;Signal;HPM_P1;HPM_P2
2023/12/22 05:05:11;;;;;;;0.30;0.30;;;7.70;99.90;;;;;;5979409;23;20240;-66
2023/12/22 05:07:37;;;;;;;0.30;0.30;;;7.80;99.90;;;;;;4961422;28;20200;-70
2023/12/22 05:10:03;;;;;;;0.30;0.30;;;7.80;99.90;;;;;;4957604;28;20173;-67
2023/12/22 05:12:29;;;;;;;0.30;0.30;;;7.80;99.90;;;;;;4956263;29;20173;-68
2023/12/22 05:14:54;;;;;;;0.30;0.30;;;7.90;99.90;;;;;;4957098;28;20414;-67
2023/12/22 05:17:20;;;;;;;0.30;0.20;;;7.90;99.90;;;;;;4957719;28;20165;-70
2023/12/22 05:19:46;;;;;;;0.30;0.30;;;7.90;99.90;;;;;;4957554;28;20169;-68
2023/12/22 05:22:11;;;;;;;0.30;0.30;;;8.00;99.90;;;;;;4957338;28;20280;-70
2023/12/22 05:24:38;;;;;;;0.30;0.30;;;8.00;99.90;;;;;;4956988;28;20210;-67
2023/12/22 05:27:04;;;;;;;0.32;0.32;;;8.00;99.90;;;;;;4956807;28;20185;-69
2023/12/22 05:29:29;;;;;;;0.30;0.30;;;8.10;99.90;;;;;;4957529;28;20219;-69
2023/12/22 05:31:55;;;;;;;0.40;0.40;;;8.10;99.90;;;;;;4956310;28;20177;-69
2023/12/22 05:34:21;;;;;;;0.40;0.40;;;8.10;99.90;;;;;;4956928;28;20173;-69
2023/12/22 05:36:46;;;;;;;0.30;0.30;;;8.10;99.90;;;;;;4954991;28;20754;-69
2023/12/22 05:39:12;;;;;;;0.30;0.30;;;8.10;99.90;;;;;;4957391;28;20169;-69
2023/12/22 05:41:37;;;;;;;0.30;0.30;;;8.10;99.90;;;;;;4957168;28;20203;-68
2023/12/22 05:44:05;;;;;;;0.30;0.30;;;8.10;99.90;;;;;;4955722;28;20207;-68
2023/12/22 05:46:31;;;;;;;0.30;0.30;;;8.10;99.90;;;;;;4956859;28;20188;-69
2023/12/22 05:48:59;;;;;;;0.30;0.30;;;8.20;99.90;;;;;;4955746;28;20637;-69
2023/12/22 05:51:25;;;;;;;0.30;0.30;;;8.10;99.90;;;;;;4956826;28;20173;-70
2023/12/22 05:53:53;;;;;;;0.30;0.30;;;8.10;99.90;;;;;;4956945;28;20597;-68
2023/12/22 05:56:20;;;;;;;0.30;0.30;;;8.10;99.90;;;;;;4956465;29;20571;-70
2023/12/22 05:58:45;;;;;;;0.40;0.40;;;8.10;99.90;;;;;;4956944;28;20177;-68
2023/12/22 06:01:16;;;;;;;0.30;0.30;;;8.10;99.90;;;;;;4955349;28;20600;-69
2023/12/22 06:03:41;;;;;;;0.30;0.30;;;8.10;99.90;;;;;;4956584;28;20474;-68
2023/12/22 06:06:07;;;;;;;0.30;0.30;;;8.20;99.90;;;;;;4956052;28;20284;-68
2023/12/22 06:08:32;;;;;;;0.20;0.20;;;8.20;99.90;;;;;;4956555;28;20537;-69
2023/12/22 06:10:58;;;;;;;0.30;0.30;;;8.20;99.90;;;;;;4956810;28;20176;-69
2023/12/22 06:13:24;;;;;;;0.30;0.30;;;8.30;99.90;;;;;;4956622;28;20187;-69
2023/12/22 06:15:50;;;;;;;0.30;0.30;;;8.30;99.90;;;;;;4956127;28;20259;-68
2023/12/22 06:18:15;;;;;;;0.20;0.20;;;8.30;99.90;;;;;;4956332;28;20200;-68
2023/12/22 06:20:41;;;;;;;0.30;0.30;;;8.40;99.90;;;;;;4956236;28;20755;-69
2023/12/22 06:23:06;;;;;;;0.30;0.30;;;8.40;99.90;;;;;;4956469;28;20192;-69
2023/12/22 06:25:32;;;;;;;0.20;0.20;;;8.40;99.90;;;;;;4956128;28;20193;-69
2023/12/22 06:27:57;;;;;;;0.30;0.30;;;8.50;99.90;;;;;;4956249;28;20173;-69
2023/12/22 06:30:23;;;;;;;0.30;0.30;;;8.50;99.90;;;;;;4956213;28;20180;-68
2023/12/22 06:32:49;;;;;;;0.30;0.30;;;8.50;99.90;;;;;;4956072;28;20188;-68
2023/12/22 06:35:14;;;;;;;0.30;0.30;;;8.50;99.90;;;;;;4955870;28;20216;-69
2023/12/22 06:37:40;;;;;;;0.20;0.20;;;8.40;99.90;;;;;;4955335;28;20169;-67
2023/12/22 06:40:06;;;;;;;0.30;0.30;;;8.50;99.90;;;;;;4956483;28;20180;-68
2023/12/22 06:42:32;;;;;;;0.30;0.30;;;8.40;99.90;;;;;;4956076;28;20576;-68
2023/12/22 06:44:57;;;;;;;0.30;0.30;;;8.40;99.90;;;;;;4955595;28;20169;-67
2023/12/22 06:47:26;;;;;;;0.50;0.50;;;8.50;99.90;;;;;;4955997;28;20690;-68
2023/12/22 06:49:52;;;;;;;0.30;0.30;;;8.50;99.90;;;;;;4955813;28;20169;-70
2023/12/22 06:52:18;;;;;;;0.40;0.40;;;8.40;99.90;;;;;;4954629;29;20264;-69
2023/12/22 06:54:44;;;;;;;0.30;0.30;;;8.40;99.90;;;;;;4972610;28;20284;-67
2023/12/22 06:57:09;;;;;;;0.30;0.30;;;8.50;99.90;;;;;;4956825;28;20214;-68
2023/12/22 06:59:35;;;;;;;0.30;0.27;;;8.50;99.90;;;;;;4972870;28;20239;-68
2023/12/22 07:02:00;;;;;;;0.30;0.30;;;8.50;99.90;;;;;;4956503;28;20258;-68
2023/12/22 07:05:20;;;;;;;0.40;0.40;;;8.40;99.90;;;;;;4972578;28;20795;-67
2023/12/22 07:07:46;;;;;;;0.30;0.30;;;8.50;99.90;;;;;;4931665;28;20191;-69
2023/12/22 07:10:12;;;;;;;0.30;0.30;;;8.50;99.90;;;;;;4972734;28;20184;-69
2023/12/22 07:12:39;;;;;;;0.30;0.30;;;8.50;99.90;;;;;;4956660;28;20255;-69
2023/12/22 07:15:06;;;;;;;0.30;0.30;;;8.50;99.90;;;;;;4972384;28;20824;-67
2023/12/22 07:17:32;;;;;;;0.30;0.30;;;8.50;99.90;;;;;;4972633;28;20183;-68
2023/12/22 07:19:58;;;;;;;0.30;0.30;;;8.60;99.90;;;;;;4972840;28;20180;-68
2023/12/22 07:22:23;;;;;;;0.30;0.30;;;8.60;99.90;;;;;;4972733;28;20497;-69
2023/12/22 07:24:51;;;;;;;0.30;0.30;;;8.60;99.90;;;;;;4969903;28;20188;-68
2023/12/22 07:27:17;;;;;;;0.30;0.30;;;8.60;99.90;;;;;;4955406;28;20200;-67
2023/12/22 07:29:42;;;;;;;0.30;0.30;;;8.60;99.90;;;;;;4955297;28;20199;-68
2023/12/22 07:32:08;;;;;;;0.40;0.40;;;8.60;99.90;;;;;;4955433;28;20715;-68
2023/12/22 07:34:33;;;;;;;0.30;0.30;;;8.60;99.90;;;;;;4955057;28;20192;-69
2023/12/22 07:36:59;;;;;;;0.30;0.20;;;8.60;99.90;;;;;;4955367;28;20688;-70
2023/12/22 07:39:25;;;;;;;0.30;0.30;;;8.60;99.90;;;;;;4953830;28;20262;-69
2023/12/22 07:41:50;;;;;;;0.30;0.20;;;8.60;99.90;;;;;;4953927;28;20200;-68
2023/12/22 07:44:16;;;;;;;0.30;0.30;;;8.60;99.90;;;;;;4954927;28;20525;-68
2023/12/22 07:46:41;;;;;;;0.30;0.30;;;8.60;99.90;;;;;;4955099;28;20195;-68
2023/12/22 07:49:07;;;;;;;0.20;0.20;;;8.70;99.90;;;;;;4955734;28;20652;-68
2023/12/22 07:51:32;;;;;;;0.30;0.30;;;8.70;99.90;;;;;;4959259;28;20172;-68
2023/12/22 07:53:58;;;;;;;0.40;0.40;;;8.70;99.90;;;;;;4958910;28;20165;-69
2023/12/22 07:56:24;;;;;;;0.37;0.37;;;8.70;99.90;;;;;;4958566;28;20678;-70
2023/12/22 07:58:49;;;;;;;0.40;0.40;;;8.70;99.90;;;;;;4958982;28;20231;-68
2023/12/22 08:01:15;;;;;;;0.30;0.20;;;8.70;99.90;;;;;;4958986;28;20618;-68
2023/12/22 08:03:41;;;;;;;0.50;0.50;;;8.70;99.90;;;;;;4958992;28;20236;-64
2023/12/22 08:06:06;;;;;;;0.30;0.30;;;8.70;99.90;;;;;;4958315;28;20608;-67
2023/12/22 08:08:33;;;;;;;0.30;0.30;;;8.70;99.90;;;;;;4958784;28;20172;-68
2023/12/22 08:10:59;;;;;;;0.28;0.28;;;8.70;99.90;;;;;;4958210;28;20685;-69
2023/12/22 08:13:25;;;;;;;0.30;0.30;;;8.70;99.90;;;;;;4958547;28;20268;-68
2023/12/22 08:15:50;;;;;;;0.37;0.37;;;8.70;99.90;;;;;;4958220;28;20920;-68
2023/12/22 08:18:16;;;;;;;0.40;0.40;;;8.60;99.90;;;;;;4958743;28;20177;-68
2023/12/22 08:20:41;;;;;;;0.30;0.30;;;8.50;99.90;;;;;;4958726;28;20212;-68
2023/12/22 08:23:07;;;;;;;0.40;0.40;;;8.40;99.90;;;;;;4958304;28;20176;-69
2023/12/22 08:25:33;;;;;;;0.40;0.40;;;8.40;99.90;;;;;;4957999;28;20184;-66
2023/12/22 08:27:58;;;;;;;0.30;0.30;;;8.20;99.90;;;;;;4958819;28;20181;-67
2023/12/22 08:30:24;;;;;;;0.30;0.30;;;8.20;99.90;;;;;;4958538;28;20215;-68
2023/12/22 08:32:50;;;;;;;0.40;0.40;;;8.10;99.90;;;;;;4958451;28;20532;-68
2023/12/22 08:35:16;;;;;;;0.30;0.20;;;8.00;99.90;;;;;;4941165;28;20700;-68
2023/12/22 08:37:42;;;;;;;0.30;0.30;;;8.00;99.90;;;;;;4938907;29;20260;-67
2023/12/22 08:40:09;;;;;;;0.30;0.30;;;7.90;99.90;;;;;;4939460;29;20248;-68
2023/12/22 08:42:35;;;;;;;0.30;0.30;;;7.90;99.90;;;;;;4939032;29;20212;-69
2023/12/22 08:45:02;;;;;;;0.30;0.30;;;7.80;99.90;;;;;;4938557;29;20169;-69
2023/12/22 08:47:27;;;;;;;0.30;0.30;;;7.80;99.90;;;;;;4939182;29;20161;-68
2023/12/22 08:49:54;;;;;;;0.30;0.30;;;7.70;99.90;;;;;;4939233;29;20199;-69
2023/12/22 08:52:20;;;;;;;0.30;0.30;;;7.80;99.90;;;;;;4938870;29;20169;-70
2023/12/22 08:54:46;;;;;;;0.30;0.30;;;7.70;99.90;;;;;;4937357;29;20597;-69
2023/12/22 08:57:11;;;;;;;0.30;0.30;;;7.80;99.90;;;;;;4938632;29;20228;-69
2023/12/22 08:59:37;;;;;;;0.30;0.30;;;7.70;99.90;;;;;;4938673;29;20249;-68
2023/12/22 09:02:02;;;;;;;0.30;0.30;;;7.70;99.90;;;;;;4936634;29;20279;-71
2023/12/22 09:04:28;;;;;;;0.30;0.30;;;7.80;99.90;;;;;;4942758;29;20192;-72
2023/12/22 09:06:54;;;;;;;0.30;0.30;;;7.80;99.90;;;;;;4957576;28;20731;-69
2023/12/22 09:09:21;;;;;;;0.30;0.30;;;7.80;99.90;;;;;;4957494;28;20641;-68
2023/12/22 09:11:47;;;;;;;0.30;0.30;;;7.90;99.90;;;;;;4957552;28;20175;-68
2023/12/22 09:14:12;;;;;;;0.30;0.30;;;7.90;99.90;;;;;;4957157;28;20176;-67
2023/12/22 09:16:38;;;;;;;0.37;0.37;;;8.00;99.90;;;;;;4957602;28;20200;-68
2023/12/22 09:19:05;;;;;;;0.30;0.30;;;8.00;99.90;;;;;;4957693;28;20204;-67
2023/12/22 09:21:30;;;;;;;0.30;0.30;;;8.00;99.90;;;;;;4957257;28;20203;-67
2023/12/22 09:23:56;;;;;;;0.30;0.30;;;8.10;99.90;;;;;;4957969;28;20264;-72
2023/12/22 09:26:21;;;;;;;0.30;0.30;;;8.10;99.90;;;;;;4957277;28;20193;-68
2023/12/22 09:28:47;;;;;;;0.33;0.33;;;8.20;99.90;;;;;;4948641;28;20699;-68
2023/12/22 09:31:13;;;;;;;0.40;0.40;;;8.20;99.90;;;;;;4948276;29;20244;-67
2023/12/22 09:33:40;;;;;;;0.30;0.30;;;8.30;99.90;;;;;;4937964;29;20177;-68
2023/12/22 09:36:06;;;;;;;0.30;0.30;;;8.30;99.90;;;;;;4946584;29;20200;-67
2023/12/22 09:38:32;;;;;;;0.30;0.30;;;8.40;99.90;;;;;;4957107;28;20180;-63
2023/12/22 09:40:58;;;;;;;0.30;0.30;;;8.40;99.90;;;;;;4957118;28;20204;-65
2023/12/22 09:43:24;;;;;;;0.50;0.50;;;8.50;99.90;;;;;;4955884;28;20258;-66
2023/12/22 09:45:50;;;;;;;0.30;0.30;;;8.50;99.90;;;;;;4956795;28;20289;-66
2023/12/22 09:48:27;;;;;;;0.30;0.30;;;8.60;99.90;;;;;;4947658;28;20177;-66
2023/12/22 09:50:54;;;;;;;0.30;0.30;;;8.60;99.90;;;;;;4946415;29;20276;-65
2023/12/22 09:53:20;;;;;;;0.30;0.30;;;8.60;99.90;;;;;;4937874;29;20178;-66
2023/12/22 09:55:48;;;;;;;0.30;0.30;;;8.70;99.90;;;;;;4937279;29;20193;-64
2023/12/22 09:58:16;;;;;;;0.30;0.22;;;8.70;99.90;;;;;;4936574;29;20181;-67
2023/12/22 10:00:42;;;;;;;0.30;0.20;;;8.70;99.90;;;;;;4937700;29;20253;-66
2023/12/22 10:03:10;;;;;;;0.30;0.30;;;8.80;99.90;;;;;;4937583;29;20177;-66
2023/12/22 10:05:36;;;;;;;0.30;0.30;;;8.80;99.90;;;;;;4937055;29;20197;-66
2023/12/22 10:08:04;;;;;;;0.30;0.30;;;8.90;99.90;;;;;;4937224;29;20193;-69
2023/12/22 10:10:30;;;;;;;0.30;0.30;;;8.90;99.90;;;;;;4937374;29;20182;-68
2023/12/22 10:12:56;;;;;;;0.30;0.30;;;8.90;99.90;;;;;;4939653;29;20185;-67
2023/12/22 10:15:25;;;;;;;0.30;0.30;;;8.90;99.90;;;;;;4956054;28;20563;-67
2023/12/22 10:17:53;;;;;;;0.30;0.30;;;9.00;99.90;;;;;;4956614;28;20180;-68
2023/12/22 10:20:18;;;;;;;0.30;0.30;;;9.10;99.90;;;;;;4956582;28;20172;-67
2023/12/22 10:22:46;;;;;;;0.30;0.30;;;9.10;99.90;;;;;;4943894;28;20186;-70
2023/12/22 10:25:16;;;;;;;0.30;0.30;;;9.10;99.90;;;;;;4955850;28;20184;-67
2023/12/22 10:27:43;;;;;;;0.40;0.40;;;9.20;99.90;;;;;;4950831;28;20177;-67
2023/12/22 10:30:10;;;;;;;0.40;0.40;;;9.20;99.90;;;;;;4947710;28;20173;-71
2023/12/22 10:32:43;;;;;;;0.30;0.30;;;9.30;99.90;;;;;;4941846;28;20649;-70
2023/12/22 10:35:09;;;;;;;0.30;0.30;;;9.30;99.90;;;;;;4948111;28;20204;-69
2023/12/22 10:37:35;;;;;;;0.30;0.30;;;9.30;99.90;;;;;;4936882;29;20269;-70
2023/12/22 10:40:04;;;;;;;0.30;0.30;;;9.30;99.90;;;;;;4948829;29;20423;-68
2023/12/22 10:42:30;;;;;;;0.30;0.30;;;9.40;99.90;;;;;;4955881;28;20200;-68
2023/12/22 10:44:56;;;;;;;0.30;0.30;;;9.40;99.90;;;;;;4954834;29;20176;-67
2023/12/22 10:47:22;;;;;;;0.30;0.30;;;9.40;99.90;;;;;;4938529;28;20611;-68
2023/12/22 10:49:49;;;;;;;0.30;0.30;;;9.40;99.90;;;;;;4936467;29;20216;-66
2023/12/22 10:52:18;;;;;;;0.30;0.30;;;9.40;99.90;;;;;;4936634;29;20177;-68
2023/12/22 10:54:44;;;;;;;0.30;0.30;;;9.50;99.90;;;;;;4935939;29;20192;-68
2023/12/22 10:57:11;;;;;;;0.30;0.30;;;9.50;99.90;;;;;;4935905;29;20216;-67
2023/12/22 10:59:45;;;;;;;0.35;0.35;;;9.50;99.90;;;;;;4939189;29;20173;-69
2023/12/22 11:02:17;;;;;;;0.30;0.30;;;9.50;99.90;;;;;;4955743;28;20210;-68
2023/12/22 11:04:56;;;;;;;0.40;0.40;;;9.50;99.90;;;;;;4955957;28;20165;-69
2023/12/22 11:07:24;;;;;;;0.30;0.30;;;9.60;99.90;;;;;;4955064;28;20180;-69
2023/12/22 11:09:52;;;;;;;0.30;0.30;;;9.60;99.90;;;;;;4952148;28;20173;-67
2023/12/22 11:12:19;;;;;;;0.30;0.20;;;9.60;99.90;;;;;;4954739;28;20519;-68
2023/12/22 11:14:50;;;;;;;0.30;0.30;;;9.60;99.90;;;;;;4936505;28;20193;-67
2023/12/22 11:17:19;;;;;;;0.40;0.40;;;9.60;99.90;;;;;;4934548;29;20185;-68
2023/12/22 11:19:45;;;;;;;0.30;0.30;;;9.60;99.90;;;;;;4935620;29;20189;-68
2023/12/22 11:22:12;;;;;;;0.40;0.40;;;9.60;99.90;;;;;;4935422;29;20291;-69
2023/12/22 11:24:40;;;;;;;0.30;0.30;;;9.60;99.90;;;;;;4935171;29;20529;-69
2023/12/22 11:27:06;;;;;;;0.30;0.30;;;9.60;99.90;;;;;;4934567;29;20189;-69
2023/12/22 11:29:34;;;;;;;0.40;0.40;;;9.60;99.90;;;;;;4933933;29;20170;-68
2023/12/22 11:32:04;;;;;;;0.30;0.30;;;9.60;99.90;;;;;;4933890;29;20709;-66
2023/12/22 11:34:32;;;;;;;0.30;0.30;;;9.60;99.90;;;;;;4933546;29;20607;-68
2023/12/22 11:37:00;;;;;;;0.30;0.30;;;9.50;99.90;;;;;;4933946;29;20260;-68
2023/12/22 11:39:26;;;;;;;0.30;0.30;;;9.50;99.90;;;;;;4934011;29;20221;-67
2023/12/22 11:41:54;;;;;;;0.30;0.30;;;9.50;99.90;;;;;;4935459;29;20209;-66
2023/12/22 11:44:21;;;;;;;0.30;0.30;;;9.50;99.90;;;;;;4935768;29;20414;-66
2023/12/22 11:46:47;;;;;;;0.40;0.40;;;9.50;99.90;;;;;;4936336;29;20208;-67
2023/12/22 11:49:13;;;;;;;0.30;0.30;;;9.50;99.90;;;;;;4950622;29;20717;-67
2023/12/22 11:51:39;;;;;;;0.33;0.33;;;9.50;99.90;;;;;;4955925;28;20185;-67
2023/12/22 11:54:43;;;;;;;0.30;0.30;;;9.50;99.90;;;;;;4957139;28;20493;-70
2023/12/22 11:57:28;;;;;;;0.30;0.28;;;9.40;99.90;;;;;;4955227;28;20203;-68
2023/12/22 11:59:58;;;;;;;0.30;0.30;;;9.40;99.90;;;;;;4954952;28;20199;-68
2023/12/22 12:02:25;;;;;;;0.30;0.30;;;9.40;99.90;;;;;;4954381;28;20206;-66
2023/12/22 12:04:52;;;;;;;0.30;0.30;;;9.30;99.90;;;;;;4954690;28;20176;-66
2023/12/22 12:07:43;;;;;;;0.30;0.30;;;9.30;99.90;;;;;;4955065;28;20181;-69
2023/12/22 12:10:10;;;;;;;0.30;0.30;;;9.30;99.90;;;;;;4955225;28;20161;-68
2023/12/22 12:12:36;;;;;;;0.30;0.20;;;9.20;99.90;;;;;;4954844;28;20169;-68
2023/12/22 12:15:10;;;;;;;0.30;0.30;;;9.20;99.90;;;;;;4954446;28;20180;-68
2023/12/22 12:17:42;;;;;;;0.30;0.30;;;9.10;99.90;;;;;;4954277;28;20223;-68
2023/12/22 12:20:10;;;;;;;0.30;0.30;;;9.10;99.90;;;;;;4953776;28;20637;-67
2023/12/22 12:22:40;;;;;;;0.30;0.30;;;9.10;99.90;;;;;;4954913;28;20564;-67
2023/12/22 12:25:10;;;;;;;0.30;0.30;;;9.10;99.90;;;;;;4954607;28;20188;-68
2023/12/22 12:27:38;;;;;;;0.40;0.40;;;9.10;99.90;;;;;;4954289;28;20165;-68
2023/12/22 12:30:10;;;;;;;0.30;0.30;;;9.10;99.90;;;;;;4954885;28;20196;-68
2023/12/22 12:32:36;;;;;;;0.30;0.30;;;9.10;99.90;;;;;;4953614;28;20196;-67
2023/12/22 12:35:04;;;;;;;0.30;0.30;;;9.10;99.90;;;;;;4954295;28;20625;-68
2023/12/22 12:37:29;;;;;;;0.30;0.30;;;9.10;99.90;;;;;;4957580;28;20317;-68
2023/12/22 12:40:01;;;;;;;0.30;0.30;;;9.10;99.90;;;;;;4958488;28;20268;-69
2023/12/22 12:42:29;;;;;;;0.30;0.30;;;9.10;99.90;;;;;;4955811;28;20209;-69
2023/12/22 12:44:55;;;;;;;0.30;0.30;;;9.10;99.90;;;;;;4944203;29;20174;-66
2023/12/22 12:47:20;;;;;;;0.30;0.30;;;9.10;99.90;;;;;;4948874;28;20664;-67
2023/12/22 12:49:46;;;;;;;0.30;0.30;;;9.10;99.90;;;;;;4939053;29;20205;-68
2023/12/22 12:52:14;;;;;;;0.40;0.40;;;9.10;99.90;;;;;;4938811;29;20171;-68
2023/12/22 12:54:40;;;;;;;0.30;0.30;;;9.10;99.90;;;;;;4938353;29;20173;-67
2023/12/22 12:57:06;;;;;;;0.30;0.30;;;9.00;99.90;;;;;;4938621;29;20193;-67
2023/12/22 12:59:32;;;;;;;0.30;0.30;;;9.10;99.90;;;;;;4938779;29;20582;-66
2023/12/22 13:01:57;;;;;;;0.30;0.30;;;9.10;99.90;;;;;;4938713;29;20696;-67
2023/12/22 13:04:23;;;;;;;0.20;0.20;;;9.10;99.90;;;;;;4938416;29;20167;-67
2023/12/22 13:06:50;;;;;;;0.30;0.30;;;9.10;99.90;;;;;;4937081;29;20453;-67
2023/12/22 13:09:16;;;;;;;0.30;0.30;;;9.10;99.90;;;;;;4938548;29;20264;-68
2023/12/22 13:11:46;;;;;;;0.30;0.30;;;9.10;99.90;;;;;;4940027;29;20177;-68
2023/12/22 13:14:12;;;;;;;0.32;0.32;;;9.20;99.90;;;;;;4957932;28;20181;-67
2023/12/22 13:16:39;;;;;;;0.30;0.30;;;9.20;99.90;;;;;;4958002;28;20197;-67
2023/12/22 13:19:05;;;;;;;0.30;0.30;;;9.20;99.90;;;;;;4957039;28;20189;-68
2023/12/22 13:21:31;;;;;;;0.30;0.30;;;9.20;99.90;;;;;;4956656;28;20263;-68
2023/12/22 13:24:13;;;;;;;0.30;0.30;;;9.30;99.90;;;;;;4957591;28;20693;-69
2023/12/22 13:26:40;;;;;;;0.30;0.20;;;9.40;99.90;;;;;;4957138;28;20440;-66
2023/12/22 13:29:06;;;;;;;0.30;0.30;;;9.40;99.90;;;;;;4957948;28;20507;-67
2023/12/22 13:31:33;;;;;;;0.30;0.30;;;9.40;99.90;;;;;;4956543;28;20649;-69
2023/12/22 13:34:02;;;;;;;0.30;0.30;;;9.50;99.90;;;;;;4956659;28;20177;-68
2023/12/22 13:36:28;;;;;;;0.30;0.30;;;9.50;99.90;;;;;;4957720;28;20214;-68
2023/12/22 13:38:54;;;;;;;0.30;0.30;;;9.60;99.90;;;;;;4958034;28;20651;-68
2023/12/22 13:41:20;;;;;;;0.30;0.30;;;9.60;99.90;;;;;;4957680;28;20463;-68
2023/12/22 13:43:46;;;;;;;0.30;0.30;;;9.70;99.90;;;;;;4957724;28;20168;-68
2023/12/22 13:46:15;;;;;;;0.30;0.30;;;9.80;99.90;;;;;;4957263;28;20948;-68
2023/12/22 13:48:40;;;;;;;0.30;0.30;;;9.90;99.90;;;;;;4956280;28;20201;-67
2023/12/22 13:51:06;;;;;;;0.30;0.30;;;10.00;99.90;;;;;;4957213;28;20708;-66
2023/12/22 13:53:32;;;;;;;0.30;0.30;;;10.10;99.90;;;;;;4957035;28;20168;-69
2023/12/22 13:55:59;;;;;;;0.30;0.30;;;10.10;99.90;;;;;;4956571;28;20195;-68
2023/12/22 13:58:25;;;;;;;0.30;0.20;;;10.20;99.90;;;;;;4956810;28;20689;-68
2023/12/22 14:00:52;;;;;;;0.28;0.20;;;10.20;99.90;;;;;;4955882;28;20206;-68
2023/12/22 14:03:21;;;;;;;0.30;0.30;;;10.30;99.90;;;;;;4955486;29;20180;-69
2023/12/22 14:05:52;;;;;;;0.35;0.35;;;10.40;99.90;;;;;;4956231;28;20188;-68
2023/12/22 14:08:18;;;;;;;0.30;0.30;;;10.40;99.90;;;;;;4956627;28;20240;-68
2023/12/22 14:10:48;;;;;;;0.30;0.30;;;10.40;99.90;;;;;;4955510;28;20177;-68
2023/12/22 14:13:14;;;;;;;0.30;0.30;;;10.50;99.90;;;;;;4956466;28;20646;-66
2023/12/22 14:15:43;;;;;;;0.30;0.20;;;10.50;99.90;;;;;;4955889;28;20614;-68
2023/12/22 14:18:09;;;;;;;0.30;0.30;;;10.40;99.90;;;;;;4956725;28;20174;-68
2023/12/22 14:20:34;;;;;;;0.30;0.30;;;10.40;99.90;;;;;;4957091;28;20261;-67
2023/12/22 14:23:00;;;;;;;0.30;0.20;;;10.50;99.90;;;;;;4957639;28;20658;-68
2023/12/22 14:25:27;;;;;;;0.30;0.20;;;10.50;99.90;;;;;;4956632;28;20232;-66
2023/12/22 14:27:56;;;;;;;0.30;0.30;;;10.40;99.90;;;;;;4945583;28;20194;-68
2023/12/22 14:30:23;;;;;;;0.30;0.30;;;10.50;99.90;;;;;;4937306;29;20171;-68
2023/12/22 14:32:48;;;;;;;0.30;0.30;;;10.50;99.90;;;;;;4937144;29;20413;-69
2023/12/22 14:35:14;;;;;;;0.30;0.30;;;10.50;99.90;;;;;;4936776;29;20960;-69
2023/12/22 14:37:39;;;;;;;0.40;0.40;;;10.50;99.90;;;;;;4937147;29;20178;-67
2023/12/22 14:40:06;;;;;;;0.30;0.20;;;10.50;99.90;;;;;;4935637;29;20637;-68
2023/12/22 14:42:32;;;;;;;0.30;0.20;;;10.50;99.90;;;;;;4937134;29;20265;-68
2023/12/22 14:44:58;;;;;;;0.30;0.30;;;10.60;99.90;;;;;;4936837;29;20523;-68
2023/12/22 14:47:23;;;;;;;0.30;0.20;;;10.60;99.90;;;;;;4937296;29;20234;-68
2023/12/22 14:49:49;;;;;;;0.30;0.30;;;10.60;99.90;;;;;;4936758;29;20640;-68
2023/12/22 14:52:15;;;;;;;0.30;0.30;;;10.60;99.90;;;;;;4956283;28;20527;-67
2023/12/22 14:54:40;;;;;;;0.30;0.30;;;10.50;99.90;;;;;;4955802;28;20170;-66
2023/12/22 14:57:06;;;;;;;0.30;0.30;;;10.60;99.90;;;;;;4956251;28;20525;-69
2023/12/22 14:59:32;;;;;;;0.30;0.30;;;10.60;99.90;;;;;;4952188;28;20635;-67
2023/12/22 15:01:57;;;;;;;0.30;0.30;;;10.60;99.90;;;;;;4936604;29;20265;-66
2023/12/22 15:04:23;;;;;;;0.30;0.30;;;10.50;99.90;;;;;;4953643;29;20182;-67
2023/12/22 15:06:49;;;;;;;0.30;0.20;;;10.50;99.90;;;;;;4955948;28;20213;-68
2023/12/22 15:09:17;;;;;;;0.30;0.20;;;10.50;99.90;;;;;;4956014;28;20245;-69
2023/12/22 15:11:43;;;;;;;0.30;0.30;;;10.50;99.90;;;;;;4955696;28;20265;-68
2023/12/22 15:14:09;;;;;;;0.40;0.40;;;10.50;99.90;;;;;;4953301;28;20178;-68
2023/12/22 15:16:39;;;;;;;0.30;0.30;;;10.40;99.90;;;;;;4936589;29;20190;-69
2023/12/22 15:19:05;;;;;;;0.30;0.30;;;10.40;99.90;;;;;;4937007;29;20471;-69
2023/12/22 15:21:31;;;;;;;0.37;0.37;;;10.40;99.90;;;;;;4936512;29;20611;-67
2023/12/22 15:23:57;;;;;;;0.30;0.20;;;10.40;99.90;;;;;;4936498;29;20419;-69
2023/12/22 15:26:23;;;;;;;0.30;0.30;;;10.30;99.90;;;;;;4936485;29;20685;-68
2023/12/22 15:28:50;;;;;;;0.30;0.30;;;10.30;99.90;;;;;;4955969;28;20225;-68
2023/12/22 15:31:16;;;;;;;0.30;0.30;;;10.30;99.90;;;;;;4955717;28;20208;-68
2023/12/22 15:33:41;;;;;;;0.30;0.30;;;10.30;99.90;;;;;;4940827;29;20252;-67
2023/12/22 15:36:07;;;;;;;0.30;0.30;;;10.30;99.90;;;;;;4936113;29;20189;-67
2023/12/22 15:38:32;;;;;;;0.30;0.30;;;10.30;99.90;;;;;;4936573;29;20589;-67
2023/12/22 15:41:04;;;;;;;0.30;0.30;;;10.30;99.90;;;;;;4936323;29;20198;-68
2023/12/22 15:43:29;;;;;;;0.30;0.20;;;10.30;99.90;;;;;;4936783;29;20180;-68
2023/12/22 15:45:55;;;;;;;0.30;0.20;;;10.30;99.90;;;;;;4936019;29;20197;-71
2023/12/22 15:48:21;;;;;;;0.30;0.30;;;10.30;99.90;;;;;;4948334;29;20178;-68
2023/12/22 15:50:47;;;;;;;0.33;0.33;;;10.30;99.90;;;;;;4955365;28;20530;-68
2023/12/22 15:53:13;;;;;;;0.30;0.30;;;10.30;99.90;;;;;;4955169;28;20161;-68
2023/12/22 15:55:38;;;;;;;0.30;0.30;;;10.30;99.90;;;;;;4954532;28;20259;-69
2023/12/22 15:58:04;;;;;;;0.30;0.30;;;10.20;99.90;;;;;;4958306;28;20516;-67
2023/12/22 16:00:29;;;;;;;0.30;0.30;;;10.20;99.90;;;;;;4957566;28;20169;-67
2023/12/22 16:02:55;;;;;;;0.30;0.30;;;10.30;99.90;;;;;;4943660;28;20218;-67
2023/12/22 16:05:21;;;;;;;0.30;0.30;;;10.30;99.90;;;;;;4941630;29;20201;-68
2023/12/22 16:07:46;;;;;;;0.30;0.27;;;10.30;99.90;;;;;;4951346;28;20557;-69
2023/12/22 16:10:12;;;;;;;0.30;0.30;;;10.30;99.90;;;;;;4939594;28;20183;-68
2023/12/22 16:12:38;;;;;;;0.30;0.30;;;10.30;99.90;;;;;;4954338;29;20209;-68
2023/12/22 16:15:08;;;;;;;0.33;0.33;;;10.30;99.90;;;;;;4939527;28;20174;-69
2023/12/22 16:17:34;;;;;;;0.30;0.30;;;10.40;99.90;;;;;;4947544;29;20564;-68
2023/12/22 16:20:00;;;;;;;0.30;0.30;;;10.40;99.90;;;;;;4939637;29;20226;-68
2023/12/22 16:22:25;;;;;;;0.30;0.30;;;10.40;99.90;;;;;;4954826;29;20459;-69
2023/12/22 16:24:51;;;;;;;0.30;0.30;;;10.40;99.90;;;;;;4958189;28;20189;-66
2023/12/22 16:27:17;;;;;;;0.30;0.20;;;10.50;99.90;;;;;;4957530;28;20255;-67
2023/12/22 16:29:46;;;;;;;0.40;0.40;;;10.50;99.90;;;;;;4943278;29;20187;-67
2023/12/22 16:32:12;;;;;;;0.30;0.30;;;10.50;99.90;;;;;;4939500;29;20174;-66
2023/12/22 16:34:42;;;;;;;0.40;0.40;;;10.40;99.90;;;;;;4954273;29;20185;-68
2023/12/22 16:37:07;;;;;;;0.30;0.30;;;10.50;99.90;;;;;;4953168;28;20205;-66
2023/12/22 16:39:33;;;;;;;0.30;0.30;;;10.50;99.90;;;;;;4939067;29;20553;-67
2023/12/22 16:41:58;;;;;;;0.30;0.30;;;10.50;99.90;;;;;;4939039;29;20211;-66
2023/12/22 16:44:24;;;;;;;0.30;0.30;;;10.50;99.90;;;;;;4936986;29;20261;-65
2023/12/22 16:46:50;;;;;;;0.30;0.20;;;10.50;99.90;;;;;;4952304;29;20202;-67
2023/12/22 16:49:16;;;;;;;0.30;0.30;;;10.50;99.90;;;;;;4939232;28;20189;-67
2023/12/22 16:51:42;;;;;;;0.30;0.30;;;10.50;99.90;;;;;;4938837;29;20256;-66
2023/12/22 16:54:07;;;;;;;0.30;0.30;;;10.50;99.90;;;;;;4941110;28;20224;-67
2023/12/22 16:56:33;;;;;;;0.30;0.20;;;10.50;99.90;;;;;;4938700;29;20203;-69
2023/12/22 16:58:58;;;;;;;0.30;0.30;;;10.50;99.90;;;;;;4937522;29;20179;-70
2023/12/22 17:01:27;;;;;;;0.30;0.30;;;10.50;99.90;;;;;;4948651;29;20256;-69
2023/12/22 17:03:53;;;;;;;0.30;0.30;;;10.50;99.90;;;;;;4957813;28;20168;-69
2023/12/22 17:06:19;;;;;;;0.37;0.37;;;10.50;99.90;;;;;;4953031;28;20210;-69
2023/12/22 17:08:44;;;;;;;0.30;0.30;;;10.50;99.90;;;;;;4937232;29;20175;-69
2023/12/22 17:11:10;;;;;;;0.30;0.30;;;10.50;99.90;;;;;;4938670;29;20556;-70
2023/12/22 17:13:35;;;;;;;0.40;0.40;;;10.50;99.90;;;;;;4938572;29;20536;-67
2023/12/22 17:16:01;;;;;;;0.30;0.30;;;10.50;99.90;;;;;;4943927;29;20305;-69
2023/12/22 17:18:27;;;;;;;0.30;0.30;;;10.50;99.90;;;;;;4937540;29;20179;-68
2023/12/22 17:20:52;;;;;;;0.30;0.30;;;10.50;99.90;;;;;;4938181;29;20169;-67
2023/12/22 17:23:18;;;;;;;0.30;0.30;;;10.50;99.90;;;;;;4937759;29;20266;-67
2023/12/22 17:25:43;;;;;;;0.30;0.30;;;10.50;99.90;;;;;;4937745;29;20650;-68
2023/12/22 17:28:09;;;;;;;0.30;0.30;;;10.50;99.90;;;;;;4938349;29;20264;-66
2023/12/22 17:30:35;;;;;;;0.30;0.20;;;10.50;99.90;;;;;;4946321;29;20174;-66
2023/12/22 17:33:01;;;;;;;0.30;0.30;;;10.50;99.90;;;;;;4938203;28;20201;-66
2023/12/22 17:35:27;;;;;;;0.30;0.20;;;10.50;99.90;;;;;;4937587;29;20246;-70
2023/12/22 17:37:52;;;;;;;0.30;0.30;;;10.50;99.90;;;;;;4937883;29;20178;-68
2023/12/22 17:40:18;;;;;;;0.30;0.30;;;10.50;99.90;;;;;;4937942;29;20174;-70
2023/12/22 17:42:43;;;;;;;0.30;0.30;;;10.50;99.90;;;;;;4937889;29;20207;-66
2023/12/22 17:45:09;;;;;;;0.30;0.30;;;10.50;99.90;;;;;;4937316;29;20273;-67
2023/12/22 17:47:35;;;;;;;0.30;0.30;;;10.50;99.90;;;;;;4956568;28;20181;-67
2023/12/22 17:50:01;;;;;;;0.30;0.30;;;10.50;99.90;;;;;;4956971;28;20405;-67
2023/12/22 17:52:26;;;;;;;0.30;0.30;;;10.50;99.90;;;;;;4948060;28;20186;-68
2023/12/22 17:54:54;;;;;;;0.30;0.30;;;10.50;99.90;;;;;;4937217;29;20605;-67